Aniak, Alaska
Current Conditions -  °F | °C
As of 9:56 AM on Thursday 30 Oct 2014 (Local Time) from PANI Reporting Station
Clear Clear  
Wind Chill: 18°   Ceiling: Unl
Heat Index: 18°   Visibility: 10mi
Dew Point: 14°   Wind: 0mph
Humidity: 86%   Direction: NA
Pressure: 29.87"   Gusts: NA
Location:  61.58°N, 159.54°W
Report Text: PANI 301756Z AUTO 00000KT 10SM CLR M08/M10 A2987 RMK AO1 11030 21080 57003
Loading
Personal Weather Stations






























Interactive Weather Map
Tropical Storm Tracking
New forecast layout! Learn more

10-Day Weather Forecast

Advertisements
Track Severe Weather on mobile